createdAt,value
2024-01-24T00:00:00.368Z,24.67
2024-01-24T00:01:07.125Z,24.67
2024-01-24T00:02:13.740Z,24.68
2024-01-24T00:03:20.527Z,24.68
2024-01-24T00:04:27.222Z,24.68
2024-01-24T00:05:33.908Z,24.69
2024-01-24T00:06:40.530Z,24.69
2024-01-24T00:07:47.103Z,24.69
2024-01-24T00:08:53.709Z,24.69
2024-01-24T00:10:00.325Z,24.70
2024-01-24T00:11:06.926Z,24.70
2024-01-24T00:12:13.641Z,24.69
2024-01-24T00:13:20.254Z,24.70
2024-01-24T00:14:26.856Z,24.69
2024-01-24T00:15:33.559Z,24.69
2024-01-24T00:16:40.168Z,24.68
2024-01-24T00:17:46.779Z,24.68
2024-01-24T00:18:53.449Z,24.68
2024-01-24T00:20:00.088Z,24.68
2024-01-24T00:21:06.716Z,24.68
2024-01-24T00:22:13.298Z,24.67
2024-01-24T00:23:19.903Z,24.67
2024-01-24T00:24:26.547Z,24.67
2024-01-24T00:25:33.146Z,24.67
2024-01-24T00:26:39.757Z,24.68
2024-01-24T00:27:46.478Z,24.68
2024-01-24T00:28:53.139Z,24.69
2024-01-24T00:29:59.753Z,24.68
2024-01-24T00:31:06.368Z,24.69
2024-01-24T00:32:12.972Z,24.69
2024-01-24T00:33:19.639Z,24.70
2024-01-24T00:34:26.295Z,24.69
2024-01-24T00:35:32.909Z,24.69
2024-01-24T00:36:39.552Z,24.69
2024-01-24T00:37:46.142Z,24.69
2024-01-24T00:38:52.758Z,24.69
2024-01-24T00:39:59.387Z,24.69
2024-01-24T00:41:06.007Z,24.69
2024-01-24T00:42:12.666Z,24.69
2024-01-24T00:43:19.272Z,24.69
2024-01-24T00:44:25.881Z,24.70
2024-01-24T00:45:32.536Z,24.69
2024-01-24T00:46:39.130Z,24.70
2024-01-24T00:47:45.778Z,24.70
2024-01-24T00:48:52.454Z,24.69
2024-01-24T00:49:59.059Z,24.69
2024-01-24T00:51:05.696Z,24.70
2024-01-24T00:52:12.350Z,24.70
2024-01-24T00:53:18.934Z,24.70
2024-01-24T00:54:25.573Z,24.70
2024-01-24T00:55:32.211Z,24.70
2024-01-24T00:56:38.823Z,24.70
2024-01-24T00:57:45.485Z,24.70
2024-01-24T00:58:52.129Z,24.70
2024-01-24T00:59:58.749Z,24.71
2024-01-24T01:01:05.474Z,24.71
2024-01-24T01:02:12.250Z,24.71
2024-01-24T01:03:18.994Z,24.71
2024-01-24T01:04:25.659Z,24.71
2024-01-24T01:05:32.299Z,24.71
2024-01-24T01:06:38.911Z,24.70
2024-01-24T01:07:45.522Z,24.70
2024-01-24T01:08:52.279Z,24.70
2024-01-24T01:09:58.923Z,24.69
2024-01-24T01:11:05.552Z,24.69
2024-01-24T01:12:12.183Z,24.69
2024-01-24T01:13:18.796Z,24.69
2024-01-24T01:14:25.379Z,24.69
2024-01-24T01:15:32.068Z,24.69
2024-01-24T01:16:38.697Z,24.69
2024-01-24T01:17:45.355Z,24.69
2024-01-24T01:18:52.076Z,24.69
2024-01-24T01:19:58.690Z,24.69
2024-01-24T01:21:05.309Z,24.69
2024-01-24T01:22:12.001Z,24.69
2024-01-24T01:23:18.647Z,24.69
2024-01-24T01:24:25.264Z,24.69
2024-01-24T01:25:31.883Z,24.70
2024-01-24T01:26:38.585Z,24.70
2024-01-24T01:27:45.233Z,24.70
2024-01-24T01:28:51.864Z,24.71
2024-01-24T01:29:58.469Z,24.71
2024-01-24T01:31:05.104Z,24.71
2024-01-24T01:32:11.710Z,24.71
2024-01-24T01:33:18.397Z,24.70
2024-01-24T01:34:25.115Z,24.70
2024-01-24T01:35:31.751Z,24.70
2024-01-24T01:36:38.389Z,24.69
2024-01-24T01:37:44.978Z,24.70
2024-01-24T01:38:51.660Z,24.70
2024-01-24T01:39:58.268Z,24.69
2024-01-24T01:41:04.845Z,24.69
2024-01-24T01:42:11.503Z,24.69
2024-01-24T01:43:18.078Z,24.69
2024-01-24T01:44:24.680Z,24.68
2024-01-24T01:45:31.332Z,24.68
2024-01-24T01:46:37.958Z,24.69
2024-01-24T01:47:44.606Z,24.69
2024-01-24T01:48:51.638Z,24.69
2024-01-24T01:49:58.463Z,24.69
2024-01-24T01:51:05.089Z,24.69
2024-01-24T01:52:11.709Z,24.69
2024-01-24T01:53:18.333Z,24.70
2024-01-24T01:54:24.986Z,24.71
2024-01-24T01:55:31.616Z,24.71
2024-01-24T01:56:38.244Z,24.71
2024-01-24T01:57:44.961Z,24.72
2024-01-24T01:58:51.929Z,24.72
2024-01-24T01:59:58.544Z,24.72
2024-01-24T02:01:05.448Z,24.72
2024-01-24T02:02:12.176Z,24.72
2024-01-24T02:03:19.127Z,24.72
2024-01-24T02:04:25.839Z,24.71
2024-01-24T02:05:32.477Z,24.73
2024-01-24T02:06:39.272Z,24.73
2024-01-24T02:07:46.041Z,24.73
2024-01-24T02:08:52.670Z,24.73
2024-01-24T02:09:59.361Z,24.73
2024-01-24T02:11:05.979Z,24.73
2024-01-24T02:12:12.625Z,24.72
2024-01-24T02:13:19.208Z,24.73
2024-01-24T02:14:25.850Z,24.73
2024-01-24T02:15:32.501Z,24.73
2024-01-24T02:16:39.100Z,24.73
2024-01-24T02:17:45.710Z,24.73
2024-01-24T02:18:52.397Z,24.73
2024-01-24T02:19:59.080Z,24.73
2024-01-24T02:21:05.713Z,24.73
2024-01-24T02:22:12.348Z,24.73
2024-01-24T02:23:18.982Z,24.73
2024-01-24T02:24:25.625Z,24.73
2024-01-24T02:25:32.228Z,24.73
2024-01-24T02:26:38.859Z,24.73
2024-01-24T02:27:47.728Z,24.72
2024-01-24T02:28:54.682Z,24.72
2024-01-24T02:30:01.311Z,24.72
2024-01-24T02:31:07.917Z,24.72
2024-01-24T02:32:14.560Z,24.72
2024-01-24T02:33:21.305Z,24.72
2024-01-24T02:34:28.162Z,24.73
2024-01-24T02:35:34.806Z,24.73
2024-01-24T02:36:41.459Z,24.73
2024-01-24T02:37:48.070Z,24.73
2024-01-24T02:38:57.676Z,24.72
2024-01-24T02:40:05.436Z,24.72
2024-01-24T02:41:12.051Z,24.72
2024-01-24T02:42:18.694Z,24.73
2024-01-24T02:43:25.320Z,24.73
2024-01-24T02:44:31.931Z,24.73
2024-01-24T02:45:38.663Z,24.73
2024-01-24T02:46:45.265Z,24.73
2024-01-24T02:47:51.976Z,24.73
2024-01-24T02:48:58.757Z,24.73
2024-01-24T02:50:05.375Z,24.73
2024-01-24T02:51:12.052Z,24.73
2024-01-24T02:52:18.691Z,24.73
2024-01-24T02:53:25.313Z,24.73
2024-01-24T02:54:31.934Z,24.73
2024-01-24T02:55:38.533Z,24.72
2024-01-24T02:56:45.145Z,24.71
2024-01-24T02:57:51.850Z,24.71
2024-01-24T02:58:58.445Z,24.71
2024-01-24T03:00:05.066Z,24.71
2024-01-24T03:01:11.769Z,24.71
2024-01-24T03:02:18.390Z,24.71
2024-01-24T03:03:25.079Z,24.71
2024-01-24T03:04:31.757Z,24.71
2024-01-24T03:05:38.396Z,24.71
2024-01-24T03:06:45.045Z,24.70
2024-01-24T03:07:51.665Z,24.70
2024-01-24T03:08:58.276Z,24.70
2024-01-24T03:10:04.870Z,24.70
2024-01-24T03:11:11.499Z,24.70
2024-01-24T03:12:18.147Z,24.70
2024-01-24T03:13:24.786Z,24.70
2024-01-24T03:14:31.375Z,24.70
2024-01-24T03:15:38.036Z,24.69
2024-01-24T03:16:44.690Z,24.69
2024-01-24T03:17:51.377Z,24.69
2024-01-24T03:18:58.073Z,24.68
2024-01-24T03:20:04.694Z,24.69
2024-01-24T03:21:11.349Z,24.69
2024-01-24T03:22:17.974Z,24.68
2024-01-24T03:23:24.589Z,24.68
2024-01-24T03:24:31.285Z,24.68
2024-01-24T03:25:37.896Z,24.68
2024-01-24T03:26:44.512Z,24.68
2024-01-24T03:27:51.178Z,24.68
2024-01-24T03:28:57.775Z,24.68
2024-01-24T03:30:04.380Z,24.68
2024-01-24T03:31:10.993Z,24.68
2024-01-24T03:32:17.598Z,24.68
2024-01-24T03:33:24.329Z,24.68
2024-01-24T03:34:31.003Z,24.68
2024-01-24T03:35:37.624Z,24.69
2024-01-24T03:36:44.258Z,24.68
2024-01-24T03:37:50.849Z,24.68
2024-01-24T03:38:57.460Z,24.68
2024-01-24T03:40:04.066Z,24.67
2024-01-24T03:41:10.685Z,24.67
2024-01-24T03:42:17.319Z,24.66
2024-01-24T03:43:23.959Z,24.67
2024-01-24T03:44:30.560Z,24.68
2024-01-24T03:45:37.258Z,24.67
2024-01-24T03:46:43.888Z,24.67
2024-01-24T03:47:50.576Z,24.66
2024-01-24T03:48:57.255Z,24.66
2024-01-24T03:50:03.877Z,24.65
2024-01-24T03:51:10.497Z,24.65
2024-01-24T03:52:17.102Z,24.66
2024-01-24T03:53:23.721Z,24.66
2024-01-24T03:54:30.358Z,24.65
2024-01-24T03:55:36.948Z,24.66
2024-01-24T03:56:43.569Z,24.66
2024-01-24T03:57:50.228Z,24.66
2024-01-24T03:58:56.822Z,24.66
2024-01-24T04:00:03.429Z,24.66
2024-01-24T04:01:10.194Z,24.66
2024-01-24T04:02:16.845Z,24.66
2024-01-24T04:03:23.656Z,24.66
2024-01-24T04:04:30.645Z,24.66
2024-01-24T04:05:37.315Z,24.66
2024-01-24T04:06:44.024Z,24.66
2024-01-24T04:07:50.630Z,24.67
2024-01-24T04:08:57.256Z,24.66
2024-01-24T04:10:03.903Z,24.68
2024-01-24T04:11:10.505Z,24.68
2024-01-24T04:12:17.149Z,24.68
2024-01-24T04:13:23.760Z,24.70
2024-01-24T04:14:30.373Z,24.70
2024-01-24T04:15:37.005Z,24.69
2024-01-24T04:16:43.603Z,24.69
2024-01-24T04:17:50.243Z,24.68
2024-01-24T04:18:57.024Z,24.68
2024-01-24T04:20:03.741Z,24.68
2024-01-24T04:21:10.358Z,24.67
2024-01-24T04:22:16.958Z,24.67
2024-01-24T04:23:23.586Z,24.67
2024-01-24T04:24:30.231Z,24.67
2024-01-24T04:25:36.818Z,24.67
2024-01-24T04:26:43.452Z,24.66
2024-01-24T04:27:50.111Z,24.66
2024-01-24T04:28:56.755Z,24.65
2024-01-24T04:30:03.365Z,24.64
2024-01-24T04:31:09.977Z,24.63
2024-01-24T04:32:16.585Z,24.61
2024-01-24T04:33:23.326Z,24.59
2024-01-24T04:34:30.050Z,24.57
2024-01-24T04:35:36.683Z,24.54
2024-01-24T04:36:43.285Z,24.51
2024-01-24T04:37:49.888Z,24.48
2024-01-24T04:38:56.508Z,24.45
2024-01-24T04:40:03.255Z,24.40
2024-01-24T04:41:09.862Z,24.36
2024-01-24T04:42:17.318Z,24.32
2024-01-24T04:43:24.081Z,24.28
2024-01-24T04:44:30.687Z,24.23
2024-01-24T04:45:37.323Z,24.20
2024-01-24T04:46:43.955Z,24.16
2024-01-24T04:47:50.628Z,24.13
2024-01-24T04:48:57.334Z,24.09
2024-01-24T04:50:04.143Z,24.07
2024-01-24T04:51:10.859Z,24.04
2024-01-24T04:52:17.449Z,24.02
2024-01-24T04:53:24.060Z,24.01
2024-01-24T04:54:30.680Z,23.99
2024-01-24T04:55:37.302Z,23.97
2024-01-24T04:56:43.914Z,23.96
2024-01-24T04:57:50.558Z,23.94
2024-01-24T04:58:57.154Z,23.93
2024-01-24T05:00:03.779Z,23.92
2024-01-24T05:01:10.472Z,23.91
2024-01-24T05:02:17.213Z,23.91
2024-01-24T05:03:23.833Z,23.90
2024-01-24T05:04:30.441Z,23.89
2024-01-24T05:05:38.711Z,23.89
2024-01-24T05:06:45.546Z,23.89
2024-01-24T05:07:52.219Z,23.89
2024-01-24T05:08:58.822Z,23.89
2024-01-24T05:10:05.433Z,23.89
2024-01-24T05:11:12.068Z,23.88
2024-01-24T05:12:18.744Z,23.89
2024-01-24T05:13:25.369Z,23.89
2024-01-24T05:14:31.981Z,23.90
2024-01-24T05:15:38.648Z,23.89
2024-01-24T05:16:45.251Z,23.89
2024-01-24T05:17:52.042Z,23.89
2024-01-24T05:18:58.805Z,23.89
2024-01-24T05:20:05.484Z,23.89
2024-01-24T05:21:12.104Z,23.89
2024-01-24T05:22:18.707Z,23.90
2024-01-24T05:23:25.332Z,23.90
2024-01-24T05:24:32.207Z,23.90
2024-01-24T05:25:38.837Z,23.91
2024-01-24T05:26:45.450Z,23.91
2024-01-24T05:27:52.196Z,23.91
2024-01-24T05:28:58.854Z,23.91
2024-01-24T05:30:15.719Z,23.91
2024-01-24T05:31:17.011Z,23.92
2024-01-24T05:32:23.685Z,23.92
2024-01-24T05:33:30.331Z,23.92
2024-01-24T05:34:37.113Z,23.93
2024-01-24T05:35:43.788Z,23.92
2024-01-24T05:36:50.485Z,23.93
2024-01-24T05:37:57.315Z,23.94
2024-01-24T05:39:03.925Z,23.94
2024-01-24T05:40:10.553Z,23.94
2024-01-24T05:41:17.189Z,23.94
2024-01-24T05:42:23.847Z,23.95
2024-01-24T05:43:30.453Z,23.95
2024-01-24T05:44:37.075Z,23.96
2024-01-24T05:45:43.723Z,23.96
2024-01-24T05:46:50.321Z,23.96
2024-01-24T05:47:57.010Z,23.96
2024-01-24T05:49:03.758Z,23.96
2024-01-24T05:50:10.392Z,23.96
2024-01-24T05:51:17.030Z,23.96
2024-01-24T05:52:23.691Z,23.96
2024-01-24T05:53:30.271Z,23.96
2024-01-24T05:54:36.959Z,23.97
2024-01-24T05:55:43.753Z,23.97
2024-01-24T05:56:50.367Z,23.97
2024-01-24T05:57:57.087Z,23.97
2024-01-24T05:59:03.829Z,23.97
2024-01-24T06:00:10.464Z,23.98
2024-01-24T06:01:17.205Z,23.98
2024-01-24T06:02:23.844Z,23.97
2024-01-24T06:03:30.485Z,23.98
2024-01-24T06:04:37.253Z,23.98
2024-01-24T06:05:44.000Z,23.98
2024-01-24T06:06:50.672Z,23.98
2024-01-24T06:07:57.345Z,23.97
2024-01-24T06:09:03.950Z,23.97
2024-01-24T06:10:10.549Z,23.98
2024-01-24T06:11:17.183Z,23.98
2024-01-24T06:12:23.859Z,23.98
2024-01-24T06:13:30.516Z,23.98
2024-01-24T06:14:37.111Z,23.98
2024-01-24T06:15:43.766Z,23.98
2024-01-24T06:16:50.392Z,23.98
2024-01-24T06:17:57.043Z,23.98
2024-01-24T06:19:03.770Z,23.97
2024-01-24T06:20:10.400Z,23.98
2024-01-24T06:21:17.023Z,23.98
2024-01-24T06:22:23.636Z,23.97
2024-01-24T06:23:30.252Z,23.97
2024-01-24T06:24:36.869Z,23.97
2024-01-24T06:25:43.515Z,23.97
2024-01-24T06:26:50.415Z,23.97
2024-01-24T06:27:57.563Z,23.97
2024-01-24T06:29:04.168Z,23.97
2024-01-24T06:30:19.423Z,23.97
2024-01-24T06:31:22.412Z,23.97
2024-01-24T06:32:29.084Z,23.96
2024-01-24T06:33:35.759Z,23.96
2024-01-24T06:34:42.380Z,23.96
2024-01-24T06:35:48.998Z,23.97
2024-01-24T06:36:55.928Z,23.96
2024-01-24T06:38:02.610Z,23.96
2024-01-24T06:39:09.242Z,23.97
2024-01-24T06:40:15.900Z,23.97
2024-01-24T06:41:22.510Z,23.97
2024-01-24T06:42:29.162Z,23.97
2024-01-24T06:43:35.775Z,23.97
2024-01-24T06:44:43.370Z,23.97
2024-01-24T06:45:50.574Z,23.97
2024-01-24T06:46:57.168Z,23.97
2024-01-24T06:48:03.787Z,23.97
2024-01-24T06:49:10.503Z,23.97
2024-01-24T06:50:17.142Z,23.98
2024-01-24T06:51:23.782Z,23.98
2024-01-24T06:52:30.380Z,23.98
2024-01-24T06:53:36.973Z,23.98
2024-01-24T06:54:43.617Z,23.98
2024-01-24T06:55:50.228Z,23.98
2024-01-24T06:56:56.856Z,23.99
2024-01-24T06:58:04.980Z,23.99
2024-01-24T06:59:12.244Z,23.99
2024-01-24T07:00:18.990Z,23.99
2024-01-24T07:01:25.652Z,23.99
2024-01-24T07:02:32.274Z,23.99
2024-01-24T07:03:39.000Z,23.99
2024-01-24T07:04:45.742Z,23.99
2024-01-24T07:05:52.440Z,23.99
2024-01-24T07:06:59.135Z,24.00
2024-01-24T07:08:05.717Z,24.00
2024-01-24T07:09:12.322Z,24.00
2024-01-24T07:10:18.949Z,23.99
2024-01-24T07:11:25.591Z,23.99
2024-01-24T07:12:32.343Z,24.00
2024-01-24T07:13:38.945Z,24.01
2024-01-24T07:14:45.556Z,24.01
2024-01-24T07:15:52.217Z,24.01
2024-01-24T07:16:58.820Z,24.01
2024-01-24T07:18:05.689Z,24.01
2024-01-24T07:19:12.426Z,24.00
2024-01-24T07:20:19.084Z,24.00
2024-01-24T07:21:25.744Z,24.00
2024-01-24T07:22:32.340Z,24.00
2024-01-24T07:23:38.986Z,24.00
2024-01-24T07:24:46.058Z,24.00
2024-01-24T07:25:52.814Z,24.00
2024-01-24T07:26:59.471Z,24.00
2024-01-24T07:28:06.128Z,23.99
2024-01-24T07:29:12.759Z,23.99
2024-01-24T07:30:19.501Z,23.99
2024-01-24T07:31:26.146Z,23.99
2024-01-24T07:32:32.835Z,23.99
2024-01-24T07:33:39.627Z,23.99
2024-01-24T07:34:46.456Z,23.98
2024-01-24T07:35:53.077Z,23.98
2024-01-24T07:36:59.765Z,23.98
2024-01-24T07:38:06.402Z,23.98
2024-01-24T07:39:13.032Z,23.99
2024-01-24T07:40:19.665Z,23.99
2024-01-24T07:41:26.284Z,23.99
2024-01-24T07:42:32.928Z,23.99
2024-01-24T07:43:39.576Z,23.99
2024-01-24T07:44:46.201Z,23.99
2024-01-24T07:45:52.873Z,23.99
2024-01-24T07:46:59.907Z,23.98
2024-01-24T07:48:06.613Z,23.98
2024-01-24T07:49:13.347Z,23.99
2024-01-24T07:50:20.084Z,23.99
2024-01-24T07:51:27.312Z,23.99
2024-01-24T07:52:40.748Z,23.99
2024-01-24T07:53:45.503Z,23.98
2024-01-24T07:54:54.007Z,23.98
2024-01-24T07:56:10.959Z,23.98
2024-01-24T07:57:13.602Z,23.97
2024-01-24T07:58:20.331Z,23.98
2024-01-24T07:59:27.286Z,23.99
2024-01-24T08:00:34.158Z,23.99
2024-01-24T08:01:40.971Z,23.99
2024-01-24T08:02:49.189Z,23.99
2024-01-24T08:03:58.211Z,23.99
2024-01-24T08:05:05.082Z,23.99
2024-01-24T08:06:13.066Z,23.99
2024-01-24T08:07:19.802Z,23.98
2024-01-24T08:08:26.575Z,23.98
2024-01-24T08:09:33.208Z,23.98
2024-01-24T08:10:39.814Z,23.98
2024-01-24T08:11:46.466Z,23.98
2024-01-24T08:12:53.355Z,23.98
2024-01-24T08:14:00.114Z,23.98
2024-01-24T08:15:06.749Z,23.98
2024-01-24T08:16:13.582Z,23.98
2024-01-24T08:17:20.211Z,23.98
2024-01-24T08:18:26.886Z,23.99
2024-01-24T08:19:33.569Z,23.99
2024-01-24T08:20:40.220Z,23.98
2024-01-24T08:21:46.899Z,23.98
2024-01-24T08:22:53.504Z,23.99
2024-01-24T08:24:00.171Z,24.00
2024-01-24T08:25:06.798Z,23.99
2024-01-24T08:26:13.525Z,24.00
2024-01-24T08:27:20.213Z,24.00
2024-01-24T08:28:26.901Z,24.00
2024-01-24T08:29:37.701Z,24.01
2024-01-24T08:30:44.969Z,24.01
2024-01-24T08:31:51.617Z,24.01
2024-01-24T08:32:58.346Z,24.01
2024-01-24T08:34:05.134Z,24.02
2024-01-24T08:35:11.934Z,24.01
2024-01-24T08:36:18.551Z,24.01
2024-01-24T08:37:25.146Z,24.02
2024-01-24T08:38:31.766Z,24.02
2024-01-24T08:39:38.396Z,24.02
2024-01-24T08:40:45.065Z,24.02
2024-01-24T08:41:51.686Z,24.02
2024-01-24T08:42:58.386Z,24.02
2024-01-24T08:44:05.025Z,24.03
2024-01-24T08:45:11.646Z,24.04
2024-01-24T08:46:18.293Z,24.04
2024-01-24T08:47:24.886Z,24.04
2024-01-24T08:48:31.633Z,24.04
2024-01-24T08:49:38.459Z,24.04
2024-01-24T08:50:45.136Z,24.04
2024-01-24T08:51:51.794Z,24.05
2024-01-24T08:52:58.692Z,24.05
2024-01-24T08:54:05.436Z,24.05
2024-01-24T08:55:12.288Z,24.05
2024-01-24T08:56:19.204Z,24.05
2024-01-24T08:57:26.194Z,24.05
2024-01-24T08:58:32.948Z,24.05
2024-01-24T08:59:39.635Z,24.04
2024-01-24T09:00:46.802Z,24.04
2024-01-24T09:01:53.761Z,24.04
2024-01-24T09:03:00.425Z,24.04
2024-01-24T09:04:07.201Z,24.04
2024-01-24T09:05:13.936Z,24.04
2024-01-24T09:06:20.610Z,24.04
2024-01-24T09:07:27.266Z,24.04
2024-01-24T09:08:33.879Z,24.04
2024-01-24T09:09:43.163Z,24.04
2024-01-24T09:10:50.129Z,24.04
2024-01-24T09:11:57.828Z,24.05
2024-01-24T09:13:04.942Z,24.05
2024-01-24T09:14:11.891Z,24.05
2024-01-24T09:15:18.609Z,24.05
2024-01-24T09:16:25.260Z,24.05
2024-01-24T09:17:32.007Z,24.05
2024-01-24T09:18:38.764Z,24.04
2024-01-24T09:19:45.600Z,24.04
2024-01-24T09:20:52.404Z,24.04
2024-01-24T09:21:59.195Z,24.04
2024-01-24T09:23:05.964Z,24.05
2024-01-24T09:24:12.654Z,24.05
2024-01-24T09:25:19.457Z,24.05
2024-01-24T09:26:26.091Z,24.05
2024-01-24T09:27:32.770Z,24.05
2024-01-24T09:28:39.381Z,24.04
2024-01-24T09:29:46.005Z,24.04
2024-01-24T09:30:52.671Z,24.04
2024-01-24T09:31:59.274Z,24.04
2024-01-24T09:33:05.958Z,24.04
2024-01-24T09:34:12.839Z,24.04
2024-01-24T09:35:19.696Z,24.04
2024-01-24T09:36:26.441Z,24.04
2024-01-24T09:37:33.063Z,24.04
2024-01-24T09:38:39.667Z,24.04
2024-01-24T09:39:46.344Z,24.04
2024-01-24T09:40:53.003Z,24.04
2024-01-24T09:41:59.640Z,24.04
2024-01-24T09:43:06.426Z,24.05
2024-01-24T09:44:13.296Z,24.05
2024-01-24T09:45:19.982Z,24.05
2024-01-24T09:46:26.602Z,24.05
2024-01-24T09:47:33.503Z,24.05
2024-01-24T09:48:40.160Z,24.05
2024-01-24T09:49:46.949Z,24.05
2024-01-24T09:50:53.672Z,24.05
2024-01-24T09:52:00.426Z,24.06
2024-01-24T09:53:07.522Z,24.06
2024-01-24T09:54:14.160Z,24.06
2024-01-24T09:55:21.728Z,24.07
2024-01-24T09:56:28.408Z,24.07
2024-01-24T09:57:35.112Z,24.07
2024-01-24T09:58:41.733Z,24.07
2024-01-24T09:59:48.329Z,24.07
2024-01-24T10:00:55.074Z,24.07
2024-01-24T10:02:01.759Z,24.06
2024-01-24T10:03:08.392Z,24.06
2024-01-24T10:04:15.164Z,24.06
2024-01-24T10:05:21.825Z,24.06
2024-01-24T10:06:28.530Z,24.06
2024-01-24T10:07:35.148Z,24.06
2024-01-24T10:08:41.752Z,24.06
2024-01-24T10:09:48.472Z,24.05
2024-01-24T10:10:55.108Z,24.05
2024-01-24T10:12:01.746Z,24.05
2024-01-24T10:13:08.378Z,24.06
2024-01-24T10:14:14.969Z,24.05
2024-01-24T10:15:21.686Z,24.05
2024-01-24T10:16:28.389Z,24.06
2024-01-24T10:17:36.058Z,24.06
2024-01-24T10:18:42.801Z,24.06
2024-01-24T10:19:49.606Z,24.07
2024-01-24T10:20:56.273Z,24.07
2024-01-24T10:22:03.395Z,24.07
2024-01-24T10:23:10.809Z,24.08
2024-01-24T10:24:17.929Z,24.08
2024-01-24T10:25:24.611Z,24.08
2024-01-24T10:26:31.423Z,24.08
2024-01-24T10:27:38.138Z,24.08
2024-01-24T10:28:44.980Z,24.08
2024-01-24T10:29:52.016Z,24.08
2024-01-24T10:30:58.709Z,24.08
2024-01-24T10:32:05.414Z,24.08
2024-01-24T10:33:12.074Z,24.08
2024-01-24T10:34:19.043Z,24.07
2024-01-24T10:35:25.861Z,24.07
2024-01-24T10:36:34.465Z,24.08
2024-01-24T10:37:41.716Z,24.08
2024-01-24T10:38:48.370Z,24.08
2024-01-24T10:39:55.076Z,24.09
2024-01-24T10:41:01.840Z,24.09
2024-01-24T10:42:11.829Z,24.09
2024-01-24T10:43:19.765Z,24.10
2024-01-24T10:44:26.449Z,24.10
2024-01-24T10:45:33.371Z,24.10
2024-01-24T10:46:40.042Z,24.11
2024-01-24T10:47:46.718Z,24.11
2024-01-24T10:48:53.423Z,24.11
2024-01-24T10:50:00.203Z,24.11
2024-01-24T10:51:07.022Z,24.11
2024-01-24T10:52:13.667Z,24.12
2024-01-24T10:53:20.515Z,24.12
2024-01-24T10:54:27.224Z,24.12
2024-01-24T10:55:33.825Z,24.12
2024-01-24T10:56:40.446Z,24.12
2024-01-24T10:57:47.300Z,24.12
2024-01-24T10:58:53.917Z,24.12
2024-01-24T11:00:00.760Z,24.12
2024-01-24T11:01:07.487Z,24.12
2024-01-24T11:02:14.256Z,24.12
2024-01-24T11:03:21.276Z,24.11
2024-01-24T11:04:28.131Z,24.12
2024-01-24T11:05:34.925Z,24.12
2024-01-24T11:06:41.581Z,24.12
2024-01-24T11:07:48.191Z,24.13
2024-01-24T11:08:54.820Z,24.13
2024-01-24T11:10:01.543Z,24.13
2024-01-24T11:11:08.161Z,24.14
2024-01-24T11:12:14.777Z,24.13
2024-01-24T11:13:21.388Z,24.13
2024-01-24T11:14:28.044Z,24.13
2024-01-24T11:15:34.696Z,24.12
2024-01-24T11:16:41.319Z,24.12
2024-01-24T11:17:48.112Z,24.12
2024-01-24T11:18:56.628Z,24.12
2024-01-24T11:20:03.516Z,24.12
2024-01-24T11:21:10.178Z,24.11
2024-01-24T11:22:24.121Z,24.10
2024-01-24T11:23:29.305Z,24.09
2024-01-24T11:24:35.945Z,24.09
2024-01-24T11:25:42.661Z,24.09
2024-01-24T11:26:49.701Z,24.09
2024-01-24T11:27:56.376Z,24.09
2024-01-24T11:29:03.005Z,24.08
2024-01-24T11:30:09.695Z,24.08
2024-01-24T11:31:16.402Z,24.08
2024-01-24T11:32:23.135Z,24.08
2024-01-24T11:33:29.974Z,24.07
2024-01-24T11:34:36.821Z,24.07
2024-01-24T11:35:43.859Z,24.07
2024-01-24T11:36:51.100Z,24.07
2024-01-24T11:38:08.553Z,24.06
2024-01-24T11:39:09.676Z,24.06
2024-01-24T11:40:16.298Z,24.06
2024-01-24T11:41:22.948Z,24.06
2024-01-24T11:42:29.740Z,24.07
2024-01-24T11:43:38.407Z,24.07
2024-01-24T11:44:46.742Z,24.07
2024-01-24T11:45:53.377Z,24.07
2024-01-24T11:46:59.989Z,24.07
2024-01-24T11:48:06.745Z,24.07
2024-01-24T11:49:14.475Z,24.07
2024-01-24T11:50:22.506Z,24.08
2024-01-24T11:51:29.368Z,24.08
2024-01-24T11:52:35.974Z,24.07
2024-01-24T11:53:42.630Z,24.08
2024-01-24T11:54:49.678Z,24.09
2024-01-24T11:55:56.419Z,24.09
2024-01-24T11:57:03.054Z,24.09
2024-01-24T11:58:09.717Z,24.09
2024-01-24T11:59:16.369Z,24.09
2024-01-24T12:00:23.018Z,24.09
2024-01-24T12:01:29.749Z,24.10
2024-01-24T12:02:36.757Z,24.11
2024-01-24T12:03:43.380Z,24.11
2024-01-24T12:04:50.372Z,24.12
2024-01-24T12:05:57.156Z,24.12
2024-01-24T12:07:04.032Z,24.14
2024-01-24T12:08:10.729Z,24.14
2024-01-24T12:09:17.354Z,24.14
2024-01-24T12:10:24.001Z,24.16
2024-01-24T12:11:30.611Z,24.17
2024-01-24T12:12:37.312Z,24.17
2024-01-24T12:13:43.916Z,24.18
2024-01-24T12:14:50.547Z,24.19
2024-01-24T12:15:58.699Z,24.20
2024-01-24T12:17:05.426Z,24.20
2024-01-24T12:18:12.435Z,24.20
2024-01-24T12:19:19.393Z,24.22
2024-01-24T12:20:26.466Z,24.22
2024-01-24T12:21:33.323Z,24.23
2024-01-24T12:22:40.069Z,24.23
2024-01-24T12:23:46.932Z,24.24
2024-01-24T12:24:53.571Z,24.23
2024-01-24T12:26:00.590Z,24.23
2024-01-24T12:27:07.476Z,24.24
2024-01-24T12:28:14.612Z,24.25
2024-01-24T12:29:22.475Z,24.25
2024-01-24T12:30:29.430Z,24.25
2024-01-24T12:31:36.026Z,24.26
2024-01-24T12:32:43.087Z,24.25
2024-01-24T12:33:50.181Z,24.26
2024-01-24T12:34:58.009Z,24.27
2024-01-24T12:36:04.734Z,24.27
2024-01-24T12:37:11.489Z,24.27
2024-01-24T12:38:18.181Z,24.27
2024-01-24T12:39:24.873Z,24.28
2024-01-24T12:40:31.765Z,24.28
2024-01-24T12:41:38.413Z,24.29
2024-01-24T12:42:45.269Z,24.30
2024-01-24T12:43:51.949Z,24.30
2024-01-24T12:44:58.650Z,24.31
2024-01-24T12:46:05.306Z,24.31
2024-01-24T12:47:12.486Z,24.31
2024-01-24T12:48:19.492Z,24.31
2024-01-24T12:49:29.593Z,24.32
2024-01-24T12:50:37.663Z,24.32
2024-01-24T12:51:44.334Z,24.33
2024-01-24T12:52:51.402Z,24.34
2024-01-24T12:53:58.024Z,24.34
2024-01-24T12:55:05.001Z,24.34
2024-01-24T12:56:11.741Z,24.34
2024-01-24T12:57:18.364Z,24.34
2024-01-24T12:58:25.033Z,24.35
2024-01-24T12:59:31.713Z,24.35
2024-01-24T13:00:38.460Z,24.36
2024-01-24T13:01:45.300Z,24.36
2024-01-24T13:02:51.979Z,24.37
2024-01-24T13:03:58.640Z,24.37
2024-01-24T13:05:05.460Z,24.37
2024-01-24T13:06:12.173Z,24.37
2024-01-24T13:07:18.968Z,24.38
2024-01-24T13:08:25.638Z,24.38
2024-01-24T13:09:37.008Z,24.38
2024-01-24T13:10:44.134Z,24.38
2024-01-24T13:11:51.173Z,24.37
2024-01-24T13:12:58.064Z,24.38
2024-01-24T13:14:04.784Z,24.37
2024-01-24T13:15:11.530Z,24.37
2024-01-24T13:16:18.738Z,24.38
2024-01-24T13:17:25.380Z,24.38
2024-01-24T13:18:32.154Z,24.39
2024-01-24T13:19:38.910Z,24.39
2024-01-24T13:20:45.611Z,24.39
2024-01-24T13:21:52.293Z,24.39
2024-01-24T13:22:58.882Z,24.39
2024-01-24T13:24:05.500Z,24.39
2024-01-24T13:25:12.373Z,24.40
2024-01-24T13:26:19.298Z,24.40
2024-01-24T13:27:25.955Z,24.40
2024-01-24T13:28:32.623Z,24.40
2024-01-24T13:29:39.330Z,24.40
2024-01-24T13:30:46.010Z,24.40
2024-01-24T13:31:52.703Z,24.40
2024-01-24T13:32:59.406Z,24.40
2024-01-24T13:34:06.554Z,24.40
2024-01-24T13:35:13.313Z,24.40
2024-01-24T13:36:20.057Z,24.40
2024-01-24T13:37:26.794Z,24.41
2024-01-24T13:38:33.458Z,24.41
2024-01-24T13:39:40.546Z,24.41
2024-01-24T13:40:47.232Z,24.42
2024-01-24T13:41:53.876Z,24.43
2024-01-24T13:43:00.604Z,24.44
2024-01-24T13:44:07.310Z,24.44
2024-01-24T13:45:13.923Z,24.44
2024-01-24T13:46:20.550Z,24.44
2024-01-24T13:47:27.375Z,24.44
2024-01-24T13:48:34.258Z,24.44
2024-01-24T13:49:40.985Z,24.45
2024-01-24T13:50:47.686Z,24.46
2024-01-24T13:51:54.335Z,24.45
2024-01-24T13:53:01.006Z,24.46
2024-01-24T13:54:07.668Z,24.47
2024-01-24T13:55:14.412Z,24.47
2024-01-24T13:56:21.067Z,24.47
2024-01-24T13:57:27.865Z,24.48
2024-01-24T13:58:34.758Z,24.48
2024-01-24T13:59:41.699Z,24.49
2024-01-24T14:00:48.350Z,24.50
2024-01-24T14:02:00.022Z,24.50
2024-01-24T14:03:06.706Z,24.49
2024-01-24T14:04:13.709Z,24.50
2024-01-24T14:05:20.509Z,24.50
2024-01-24T14:06:27.421Z,24.51
2024-01-24T14:07:34.245Z,24.51
2024-01-24T14:08:40.902Z,24.52
2024-01-24T14:09:47.553Z,24.52
2024-01-24T14:10:54.852Z,24.52
2024-01-24T14:12:02.363Z,24.53
2024-01-24T14:13:09.329Z,24.53
2024-01-24T14:14:16.009Z,24.54
2024-01-24T14:15:32.745Z,24.54
2024-01-24T14:16:34.308Z,24.55
2024-01-24T14:17:40.975Z,24.56
2024-01-24T14:18:47.674Z,24.56
2024-01-24T14:19:54.737Z,24.56